Time;durP1;ratioP1;P1;durP2;ratioP2;P2;SDS_P1;SDS_P2;PMS_P1;PMS_P2;Temp;Humidity;BMP_temperature;BMP_pressure;BME280_temperature;BME280_humidity;BME280_pressure;Samples;Min_cycle;Max_cycle;Signal;HPM_P1;HPM_P2
2023/06/30 00:01:10;;;;;;;15.20;8.40;;;;;;;14.25;100.00;98555.54;136682;1276;22188;-85
2023/06/30 00:04:23;;;;;;;9.70;8.50;;;;;;;14.20;100.00;98558.55;136731;1266;22527;-85
2023/06/30 00:07:25;;;;;;;10.00;8.70;;;;;;;14.16;100.00;98553.67;137283;1272;22227;-87
2023/06/30 00:10:28;;;;;;;9.10;7.70;;;;;;;14.10;100.00;98548.12;136755;1276;22405;-86
2023/06/30 00:13:31;;;;;;;11.10;8.30;;;;;;;14.06;100.00;98548.31;136689;1276;22249;-86
2023/06/30 00:16:34;;;;;;;14.50;8.20;;;;;;;14.01;100.00;98551.67;137465;1272;22534;-86
2023/06/30 00:19:37;;;;;;;8.40;7.60;;;;;;;13.95;100.00;98551.20;136917;1272;22066;-85
2023/06/30 00:22:42;;;;;;;38.40;10.40;;;;;;;13.91;100.00;98551.39;137191;1272;22311;-86
2023/06/30 00:25:44;;;;;;;12.00;8.30;;;;;;;13.87;100.00;98547.04;137059;1272;22550;-83
2023/06/30 00:28:47;;;;;;;11.70;8.20;;;;;;;13.82;100.00;98546.52;137098;1266;22094;-86
2023/06/30 00:31:49;;;;;;;12.50;8.70;;;;;;;13.76;100.00;98544.45;137052;1273;22231;-85
2023/06/30 00:34:52;;;;;;;12.50;8.20;;;;;;;13.70;100.00;98540.98;137263;1273;22549;-85
2023/06/30 00:37:54;;;;;;;30.50;9.80;;;;;;;13.66;100.00;98532.44;137448;1273;22452;-86
2023/06/30 00:40:57;;;;;;;11.60;8.90;;;;;;;13.67;100.00;98533.84;136990;1273;22238;-85
2023/06/30 00:43:59;;;;;;;11.20;8.40;;;;;;;13.64;100.00;98532.63;136734;1273;22569;-84
2023/06/30 00:47:01;;;;;;;15.10;9.20;;;;;;;13.61;100.00;98529.85;137307;1273;22228;-86
2023/06/30 00:50:04;;;;;;;11.60;9.10;;;;;;;13.60;100.00;98533.17;137025;1273;22196;-86
2023/06/30 00:53:06;;;;;;;10.10;8.50;;;;;;;13.53;100.00;98529.89;136853;1273;22731;-87
2023/06/30 00:56:11;;;;;;;9.70;8.50;;;;;;;13.48;100.00;98527.30;137535;1273;22113;-84
2023/06/30 00:59:14;;;;;;;10.20;9.20;;;;;;;13.44;100.00;98527.48;136983;1273;22371;-84
2023/06/30 01:02:16;;;;;;;10.40;8.80;;;;;;;13.39;100.00;98522.09;136959;1272;22525;-85
2023/06/30 01:05:19;;;;;;;10.60;9.00;;;;;;;13.35;100.00;98520.02;137356;1273;22543;-83
2023/06/30 01:08:21;;;;;;;10.90;9.10;;;;;;;13.31;100.00;98517.05;137230;1273;22196;-84
2023/06/30 01:11:24;;;;;;;9.80;8.80;;;;;;;13.26;100.00;98517.61;136902;1273;22424;-84
2023/06/30 01:14:26;;;;;;;10.50;9.00;;;;;;;13.24;100.00;98517.61;137020;1273;22558;-84
2023/06/30 01:17:29;;;;;;;11.50;9.20;;;;;;;13.21;100.00;98517.63;137418;1273;22701;-85
2023/06/30 01:20:32;;;;;;;9.80;8.30;;;;;;;13.18;100.00;98518.33;137002;1273;22239;-85
2023/06/30 01:23:35;;;;;;;11.50;9.40;;;;;;;13.14;100.00;98512.90;136971;1273;22619;-86
2023/06/30 01:26:37;;;;;;;9.70;8.70;;;;;;;13.11;100.00;98510.47;137576;1273;22687;-85
2023/06/30 01:29:42;;;;;;;9.40;8.50;;;;;;;13.08;100.00;98506.81;136929;1273;22578;-84
2023/06/30 01:32:45;;;;;;;10.60;9.30;;;;;;;13.05;100.00;98507.35;136920;1273;22399;-84
2023/06/30 01:35:51;;;;;;;9.80;8.90;;;;;;;13.01;100.00;98503.51;137330;1273;22538;-84
2023/06/30 01:38:54;;;;;;;61.80;12.80;;;;;;;12.98;100.00;98505.59;137277;1273;22238;-83
2023/06/30 01:41:56;;;;;;;17.70;9.20;;;;;;;12.96;100.00;98502.45;136875;1273;22154;-85
2023/06/30 01:44:59;;;;;;;68.30;14.00;;;;;;;12.91;100.00;98506.31;137000;1273;22577;-80
2023/06/30 01:48:01;;;;;;;12.30;8.90;;;;;;;12.87;100.00;98502.48;137439;1273;22388;-85
2023/06/30 01:51:04;;;;;;;12.10;9.50;;;;;;;12.83;100.00;98500.92;136912;1273;22204;-84
2023/06/30 01:54:06;;;;;;;15.20;9.80;;;;;;;12.78;100.00;98507.39;136892;1273;22209;-85
2023/06/30 01:57:12;;;;;;;23.10;9.90;;;;;;;12.72;100.00;98507.23;137605;1273;22288;-84
2023/06/30 02:00:15;;;;;;;13.00;9.50;;;;;;;12.69;100.00;98506.54;136849;1273;22165;-86
2023/06/30 02:03:17;;;;;;;11.00;9.00;;;;;;;12.65;100.00;98505.50;136977;1273;22363;-86
2023/06/30 02:06:20;;;;;;;11.90;9.10;;;;;;;12.64;100.00;98507.77;137338;1273;22630;-86
2023/06/30 02:09:22;;;;;;;13.90;9.40;;;;;;;12.61;100.00;98504.11;137252;1273;22359;-87
2023/06/30 02:12:25;;;;;;;10.20;9.00;;;;;;;12.57;100.00;98502.20;136919;1273;22213;-86
2023/06/30 02:15:27;;;;;;;158.80;21.00;;;;;;;12.53;100.00;98500.27;136960;1273;25239;-85
2023/06/30 02:18:30;;;;;;;59.40;12.60;;;;;;;12.54;100.00;98501.15;137417;1273;22244;-85
2023/06/30 02:21:38;;;;;;;66.20;12.70;;;;;;;12.53;100.00;98501.50;137021;1273;22264;-80
2023/06/30 02:24:40;;;;;;;22.60;9.70;;;;;;;12.52;100.00;98498.89;136957;1273;22569;-84
2023/06/30 02:27:45;;;;;;;11.10;9.70;;;;;;;12.48;100.00;98496.63;137205;1273;22994;-84
2023/06/30 02:30:47;;;;;;;43.80;11.40;;;;;;;12.46;100.00;98497.33;137017;1273;22423;-82
2023/06/30 02:33:50;;;;;;;16.80;9.20;;;;;;;12.45;100.00;98493.14;137109;1273;22247;-82
2023/06/30 02:36:52;;;;;;;56.20;12.00;;;;;;;12.42;100.00;98488.95;137173;1273;22403;-83
2023/06/30 02:39:55;;;;;;;62.80;12.50;;;;;;;12.42;100.00;98489.30;137172;1273;22169;-85
2023/06/30 02:42:57;;;;;;;10.00;9.00;;;;;;;12.44;100.00;98488.43;137353;1273;22405;-84
2023/06/30 02:46:00;;;;;;;115.80;16.70;;;;;;;12.48;100.00;98481.45;137405;1273;22519;-82
2023/06/30 02:49:02;;;;;;;45.40;12.40;;;;;;;12.52;100.00;98486.50;137352;1273;22517;-83
2023/06/30 02:52:06;;;;;;;10.60;7.80;;;;;;;12.54;100.00;98484.40;136964;1273;22254;-84
2023/06/30 02:55:09;;;;;;;28.20;9.90;;;;;;;12.55;100.00;98484.91;137098;1273;22662;-85
2023/06/30 02:58:12;;;;;;;13.50;8.30;;;;;;;12.59;100.00;98483.88;137435;1273;22158;-82
2023/06/30 03:01:14;;;;;;;17.90;10.80;;;;;;;12.59;100.00;98486.14;136755;1273;22555;-84
2023/06/30 03:04:17;;;;;;;43.10;9.80;;;;;;;12.57;100.00;98487.19;137003;1273;22537;-83
2023/06/30 03:07:19;;;;;;;24.40;9.30;;;;;;;12.60;100.00;98488.92;137486;1273;22546;-84
2023/06/30 03:10:22;;;;;;;13.00;8.30;;;;;;;12.62;100.00;98486.48;136927;1273;22922;-84
2023/06/30 03:13:25;;;;;;;9.60;8.60;;;;;;;12.63;100.00;98490.84;137131;1273;22691;-83
2023/06/30 03:16:27;;;;;;;8.90;7.90;;;;;;;12.66;100.00;98488.73;137588;1273;22258;-84
2023/06/30 03:19:30;;;;;;;11.30;8.50;;;;;;;12.69;100.00;98488.20;137463;1273;22391;-84
2023/06/30 03:22:32;;;;;;;11.80;8.30;;;;;;;12.75;100.00;98487.49;137048;1273;22553;-84
2023/06/30 03:25:36;;;;;;;15.10;7.90;;;;;;;12.86;100.00;98484.67;137508;1273;22134;-84
2023/06/30 03:28:39;;;;;;;11.80;8.00;;;;;;;13.01;100.00;98484.29;137507;1270;22269;-84
2023/06/30 03:31:41;;;;;;;9.60;7.10;;;;;;;13.14;100.00;98482.69;137241;1272;22720;-85
2023/06/30 03:34:46;;;;;;;34.60;10.60;;;;;;;13.24;100.00;98482.50;137272;1273;22419;-84
2023/06/30 03:37:48;;;;;;;69.20;11.60;;;;;;;13.31;100.00;98479.84;137458;1273;23021;-84
2023/06/30 03:40:51;;;;;;;40.30;11.20;;;;;;;13.36;100.00;98477.71;137539;1273;22261;-85
2023/06/30 03:43:53;;;;;;;8.70;7.80;;;;;;;13.41;100.00;98479.27;137199;1273;22185;-84
2023/06/30 03:46:56;;;;;;;16.90;7.80;;;;;;;13.47;100.00;98480.27;137546;1273;22282;-83
2023/06/30 03:49:58;;;;;;;1999.90;311.40;;;;;;;13.53;100.00;98478.49;137568;1273;22248;-83
2023/06/30 03:53:01;;;;;;;214.30;21.00;;;;;;;13.59;100.00;98474.44;137465;1273;23017;-84
2023/06/30 03:56:04;;;;;;;23.30;8.30;;;;;;;13.68;100.00;98472.81;137551;1273;22271;-83
2023/06/30 03:59:06;;;;;;;9.00;7.20;;;;;;;13.77;100.00;98473.10;137471;1273;22683;-84
2023/06/30 04:02:09;;;;;;;7.60;6.90;;;;;;;13.87;100.00;98468.33;137405;1273;22563;-83
2023/06/30 04:05:11;;;;;;;9.20;7.00;;;;;;;13.99;100.00;98468.42;137554;1273;22253;-83
2023/06/30 04:08:13;;;;;;;10.10;6.90;;;;;;;14.13;100.00;98466.55;137475;1273;22216;-83
2023/06/30 04:11:16;;;;;;;19.70;7.80;;;;;;;14.26;100.00;98469.42;137495;1260;22233;-82
2023/06/30 04:14:18;;;;;;;10.70;6.80;;;;;;;14.43;100.00;98462.45;137622;1273;22249;-79
2023/06/30 04:17:21;;;;;;;15.90;7.30;;;;;;;14.63;100.00;98459.29;137385;1273;22282;-81
2023/06/30 04:20:27;;;;;;;7.30;6.70;;;;;;;14.83;100.00;98465.06;137496;1273;22226;-81
2023/06/30 04:23:29;;;;;;;8.00;6.60;;;;;;;15.11;100.00;98464.19;137574;1273;22145;-84
2023/06/30 04:26:32;;;;;;;8.80;7.30;;;;;;;15.46;100.00;98460.94;137541;1273;22274;-84
2023/06/30 04:29:34;;;;;;;28.00;7.90;;;;;;;15.75;100.00;98461.81;137512;1273;22547;-81
2023/06/30 04:32:37;;;;;;;7.20;6.60;;;;;;;16.09;100.00;98460.05;137496;1273;22239;-81
2023/06/30 04:35:44;;;;;;;14.00;6.40;;;;;;;16.38;95.87;98460.25;137568;1272;22259;-81
2023/06/30 04:38:47;;;;;;;11.30;6.90;;;;;;;16.57;93.48;98462.41;137581;1273;22202;-84
2023/06/30 04:41:50;;;;;;;15.80;7.50;;;;;;;16.87;93.49;98460.98;137482;1273;22538;-83
2023/06/30 04:44:52;;;;;;;13.40;7.40;;;;;;;17.19;93.26;98459.45;137124;1273;22745;-82
2023/06/30 04:47:55;;;;;;;12.20;7.30;;;;;;;17.50;92.37;98457.59;137430;1273;22355;-83
2023/06/30 04:50:57;;;;;;;17.50;7.80;;;;;;;17.80;92.00;98458.52;137513;1273;22197;-82
2023/06/30 04:54:00;;;;;;;50.60;9.10;;;;;;;18.06;91.58;98458.45;137571;1273;22198;-83
2023/06/30 04:57:02;;;;;;;10.40;9.20;;;;;;;18.36;91.43;98460.71;137492;1273;22202;-83
2023/06/30 05:00:06;;;;;;;10.50;7.00;;;;;;;18.67;91.14;98455.35;137513;1273;22652;-82
2023/06/30 05:03:11;;;;;;;23.10;7.80;;;;;;;18.96;90.16;98458.23;137533;1273;22284;-84
2023/06/30 05:06:14;;;;;;;10.50;6.80;;;;;;;19.23;89.51;98451.52;137421;1273;22810;-81
2023/06/30 05:09:16;;;;;;;21.70;6.60;;;;;;;19.49;89.00;98451.98;137519;1273;22595;-83
2023/06/30 05:12:19;;;;;;;19.30;7.30;;;;;;;19.73;88.34;98445.59;137235;1273;22265;-83
2023/06/30 05:15:21;;;;;;;9.70;6.40;;;;;;;19.96;88.27;98447.38;137567;1273;22722;-83
2023/06/30 05:18:24;;;;;;;19.60;6.10;;;;;;;20.21;86.71;98446.73;137361;1273;22583;-83
2023/06/30 05:21:26;;;;;;;39.90;6.90;;;;;;;20.41;83.50;98442.38;137550;1273;22226;-83
2023/06/30 05:27:45;;;;;;;20.00;6.30;;;;;;;21.16;78.88;98436.02;137562;1273;22221;-84
2023/06/30 05:30:47;;;;;;;126.70;13.00;;;;;;;21.46;78.32;98435.77;137545;1273;22245;-84
2023/06/30 05:33:50;;;;;;;12.20;4.80;;;;;;;21.60;75.45;98436.98;137544;1266;22692;-84
2023/06/30 05:36:54;;;;;;;7.30;4.00;;;;;;;21.78;74.75;98442.16;137586;1273;22485;-86
2023/06/30 05:39:59;;;;;;;19.60;4.40;;;;;;;22.01;71.95;98444.79;136946;1273;22557;-85
2023/06/30 05:43:02;;;;;;;5.50;3.90;;;;;;;22.18;71.86;98442.69;137236;1273;22387;-85
2023/06/30 05:46:08;;;;;;;5.70;3.80;;;;;;;22.37;71.49;98445.82;137580;1273;22211;-83
2023/06/30 05:49:10;;;;;;;7.20;3.90;;;;;;;22.53;69.91;98443.91;137595;1273;22843;-85
2023/06/30 05:52:13;;;;;;;4.00;3.50;;;;;;;22.66;69.03;98446.20;136985;1273;22784;-83
2023/06/30 05:55:16;;;;;;;4.60;4.00;;;;;;;22.77;67.64;98442.70;137419;1273;22619;-84
2023/06/30 05:58:19;;;;;;;5.90;3.60;;;;;;;22.85;67.95;98444.50;137392;1273;22233;-84
2023/06/30 06:01:22;;;;;;;5.60;3.70;;;;;;;23.03;67.10;98442.27;137121;1273;22585;-83
2023/06/30 06:04:24;;;;;;;7.10;3.80;;;;;;;23.14;65.79;98440.37;137420;1273;22211;-85
2023/06/30 06:07:27;;;;;;;7.10;3.30;;;;;;;23.32;64.82;98444.69;137579;1272;22298;-87
2023/06/30 06:10:31;;;;;;;5.40;3.60;;;;;;;23.43;63.46;98444.56;137398;1272;22280;-85
2023/06/30 06:13:37;;;;;;;9.30;3.60;;;;;;;23.68;63.58;98438.08;137514;1273;22880;-84
2023/06/30 06:16:45;;;;;;;12.80;4.00;;;;;;;24.00;62.01;98439.17;137333;1273;22265;-85
2023/06/30 06:19:48;;;;;;;5.10;3.10;;;;;;;24.15;61.72;98435.75;137573;1273;22676;-85
2023/06/30 06:22:50;;;;;;;4.90;3.40;;;;;;;24.32;60.41;98439.07;137493;1273;22216;-85
2023/06/30 06:25:53;;;;;;;3.50;2.90;;;;;;;24.27;60.16;98440.55;137539;1273;22170;-84
2023/06/30 06:28:55;;;;;;;4.50;3.30;;;;;;;24.36;60.12;98441.00;137575;1273;22102;-85
2023/06/30 06:31:58;;;;;;;10.70;3.40;;;;;;;24.57;60.48;98443.48;137539;1273;22353;-83
2023/06/30 06:35:01;;;;;;;5.00;3.20;;;;;;;24.95;59.43;98440.47;137471;1273;22166;-83
2023/06/30 06:38:03;;;;;;;6.20;3.00;;;;;;;25.11;56.96;98439.23;137564;1272;22588;-85
2023/06/30 06:41:06;;;;;;;5.90;3.30;;;;;;;25.09;55.72;98437.06;137500;1273;22169;-84
2023/06/30 06:44:09;;;;;;;4.90;3.30;;;;;;;25.13;56.53;98435.64;137558;1273;22927;-85
2023/06/30 06:47:11;;;;;;;6.30;3.50;;;;;;;25.47;56.40;98435.55;137536;1273;22171;-82
2023/06/30 06:50:14;;;;;;;10.20;3.50;;;;;;;25.87;54.66;98438.17;137555;1273;22797;-79
2023/06/30 06:53:25;;;;;;;8.60;3.70;;;;;;;26.22;53.27;98442.25;137575;1273;22297;-82
2023/06/30 06:56:28;;;;;;;7.90;3.30;;;;;;;26.47;52.33;98442.76;137578;1270;22647;-82
2023/06/30 06:59:30;;;;;;;8.50;3.40;;;;;;;26.57;51.39;98440.75;137521;1273;22738;-82
2023/06/30 07:02:33;;;;;;;5.00;3.30;;;;;;;26.54;51.32;98440.71;137536;1273;22249;-84
2023/06/30 07:05:36;;;;;;;5.10;3.10;;;;;;;26.41;50.30;98441.55;137531;1273;22341;-84
2023/06/30 07:08:39;;;;;;;5.70;2.70;;;;;;;26.18;50.83;98439.07;137580;1272;22268;-83
2023/06/30 07:11:41;;;;;;;4.00;2.90;;;;;;;26.18;50.86;98436.80;137521;1273;22348;-82
2023/06/30 07:14:44;;;;;;;3.80;2.90;;;;;;;26.21;49.92;98437.33;137576;1273;22338;-83
2023/06/30 07:17:46;;;;;;;5.40;3.10;;;;;;;26.34;49.66;98431.57;137556;1273;22227;-83
2023/06/30 07:20:48;;;;;;;3.60;2.90;;;;;;;26.64;49.75;98423.38;137579;1273;22787;-83
2023/06/30 07:23:52;;;;;;;6.60;2.30;;;;;;;27.00;49.02;98425.69;137617;1273;22249;-82
2023/06/30 07:26:55;;;;;;;;;;;;;;;27.16;47.53;98422.72;137462;1273;22536;-81
2023/06/30 07:29:57;;;;;;;3.50;2.70;;;;;;;27.28;46.75;98422.30;137594;1273;22286;-83
2023/06/30 07:33:00;;;;;;;10.40;5.90;;;;;;;27.34;47.08;98415.72;137386;1273;22406;-82
2023/06/30 07:36:02;;;;;;;4.70;3.70;;;;;;;27.50;46.95;98411.27;137427;1273;22279;-81
2023/06/30 07:39:05;;;;;;;3.60;3.00;;;;;;;27.62;46.87;98406.80;137351;1273;22529;-82
2023/06/30 07:42:08;;;;;;;;;;;;;;;27.76;46.51;98406.46;137358;1273;22485;-79
2023/06/30 07:45:11;;;;;;;6.30;3.30;;;;;;;27.81;46.23;98402.52;137287;1273;22385;-82
2023/06/30 07:48:13;;;;;;;5.20;3.10;;;;;;;27.70;45.78;98404.32;137607;1273;22262;-82
2023/06/30 07:51:16;;;;;;;6.00;2.60;;;;;;;27.82;46.44;98397.67;137578;1273;22229;-82
2023/06/30 07:54:19;;;;;;;3.60;2.70;;;;;;;28.14;46.15;98396.46;137483;1273;22677;-81
2023/06/30 07:57:21;;;;;;;;;;;;;;;28.32;45.12;98395.44;137534;1273;22514;-83
2023/06/30 08:03:49;;;;;;;4.70;2.80;;;;;;;28.32;45.29;98388.65;137421;1270;22161;-82
2023/06/30 08:06:51;;;;;;;5.00;2.90;;;;;;;28.35;43.43;98387.70;137574;1273;22340;-82
2023/06/30 08:09:54;;;;;;;8.00;3.40;;;;;;;28.05;43.66;98387.22;137398;1273;22527;-81
2023/06/30 08:12:56;;;;;;;9.10;3.20;;;;;;;28.01;43.88;98383.21;137501;1257;22285;-83
2023/06/30 08:15:59;;;;;;;8.20;2.90;;;;;;;28.00;44.20;98382.14;137620;1273;22195;-84
2023/06/30 08:19:01;;;;;;;4.00;3.40;;;;;;;28.31;43.96;98375.29;137318;1257;22520;-84
2023/06/30 08:22:04;;;;;;;3.80;2.90;;;;;;;28.42;43.02;98380.57;137521;1273;22351;-84
2023/06/30 08:25:07;;;;;;;3.90;3.20;;;;;;;28.57;43.60;98378.55;137474;1273;22234;-84
2023/06/30 08:28:09;;;;;;;4.30;2.90;;;;;;;28.86;42.71;98378.16;137567;1272;22986;-83
2023/06/30 08:31:12;;;;;;;4.20;2.80;;;;;;;29.00;41.81;98378.42;137619;1273;22210;-83
2023/06/30 08:34:16;;;;;;;4.20;3.30;;;;;;;29.19;41.55;98381.91;137566;1273;22198;-83
2023/06/30 08:37:18;;;;;;;3.50;2.80;;;;;;;29.39;41.83;98382.61;137480;1273;22394;-84
2023/06/30 08:40:21;;;;;;;3.00;2.80;;;;;;;29.63;41.35;98387.55;137593;1273;22152;-83
2023/06/30 08:43:26;;;;;;;5.20;3.00;;;;;;;29.98;40.59;98384.24;137035;1273;22636;-83
2023/06/30 08:46:29;;;;;;;;;;;;;;;30.42;39.97;98379.30;137506;1273;22929;-83
2023/06/30 08:49:31;;;;;;;3.90;3.10;;;;;;;30.74;39.58;98378.84;137577;1273;22191;-83
2023/06/30 08:52:37;;;;;;;4.40;2.90;;;;;;;30.77;38.58;98376.88;137471;1273;22212;-83
2023/06/30 08:55:40;;;;;;;6.60;2.90;;;;;;;30.69;38.78;98380.00;137411;1266;22226;-83
2023/06/30 08:58:42;;;;;;;8.80;3.20;;;;;;;30.77;38.77;98369.29;137187;1273;22586;-84
2023/06/30 09:01:45;;;;;;;3.30;3.00;;;;;;;30.58;38.14;98370.79;137488;1273;23027;-83
2023/06/30 09:04:48;;;;;;;;;;;;;;;30.38;39.79;98365.45;137491;1273;22508;-84
2023/06/30 09:07:50;;;;;;;11.00;3.60;;;;;;;30.40;40.17;98362.29;137412;1273;22764;-82
2023/06/30 09:10:53;;;;;;;28.40;5.10;;;;;;;30.41;40.56;98358.44;137504;1273;22197;-81
2023/06/30 09:13:56;;;;;;;28.10;5.10;;;;;;;30.42;41.03;98361.23;137589;1273;22490;-83
2023/06/30 09:16:59;;;;;;;11.70;4.80;;;;;;;30.41;39.74;98355.58;137463;1273;22188;-82
2023/06/30 09:20:01;;;;;;;28.00;4.90;;;;;;;30.61;39.68;98353.49;137475;1273;22703;-82
2023/06/30 09:23:07;;;;;;;5.60;3.60;;;;;;;30.73;38.98;98354.17;137568;1273;26262;-86
2023/06/30 09:26:09;;;;;;;11.00;4.90;;;;;;;30.83;38.71;98354.99;137460;1273;22372;-83
2023/06/30 09:29:12;;;;;;;9.00;3.90;;;;;;;31.05;39.14;98350.75;137586;1273;22293;-81
2023/06/30 09:32:14;;;;;;;6.70;3.80;;;;;;;31.16;38.58;98349.34;137557;1273;22139;-80
2023/06/30 09:35:17;;;;;;;11.30;4.80;;;;;;;31.24;37.26;98351.81;137560;1273;22092;-81
2023/06/30 09:38:19;;;;;;;25.70;19.00;;;;;;;31.17;37.49;98351.92;137575;1273;23033;-80
2023/06/30 09:41:22;;;;;;;4.70;3.80;;;;;;;31.34;36.54;98354.16;137552;1273;22306;-80
2023/06/30 09:44:25;;;;;;;5.30;3.60;;;;;;;31.54;36.83;98350.27;137531;1273;22191;-81
2023/06/30 09:47:27;;;;;;;10.20;5.10;;;;;;;31.68;36.60;98348.95;137534;1273;22211;-80
2023/06/30 09:50:30;;;;;;;6.00;3.10;;;;;;;31.77;35.66;98355.55;137532;1273;22753;-81
2023/06/30 09:53:32;;;;;;;7.90;4.10;;;;;;;31.71;35.52;98352.12;137544;1273;22253;-81
2023/06/30 09:56:35;;;;;;;5.30;3.70;;;;;;;31.87;35.84;98346.67;137538;1267;22244;-80
2023/06/30 09:59:38;;;;;;;8.00;3.80;;;;;;;31.99;35.39;98347.06;137544;1273;22665;-80
2023/06/30 10:02:40;;;;;;;5.20;3.90;;;;;;;31.84;35.78;98350.67;137576;1273;22185;-81
2023/06/30 10:05:45;;;;;;;4.40;3.50;;;;;;;31.74;36.05;98345.18;137562;1267;22295;-82
2023/06/30 10:08:47;;;;;;;12.40;4.50;;;;;;;31.64;36.85;98342.35;137231;1273;22220;-83
2023/06/30 10:11:51;;;;;;;4.70;3.80;;;;;;;31.80;36.80;98348.27;137605;1273;22151;-82
2023/06/30 10:14:53;;;;;;;4.40;3.70;;;;;;;31.90;36.40;98350.36;137552;1273;22207;-82
2023/06/30 10:17:56;;;;;;;4.50;4.10;;;;;;;31.49;36.93;98346.84;137494;1273;22214;-81
2023/06/30 10:20:58;;;;;;;5.30;4.20;;;;;;;31.33;37.61;98346.88;137575;1273;22682;-81
2023/06/30 10:24:02;;;;;;;7.10;4.40;;;;;;;31.36;38.02;98347.03;137544;1273;22285;-81
2023/06/30 10:27:05;;;;;;;5.40;4.60;;;;;;;31.41;37.13;98345.36;137530;1273;22287;-82
2023/06/30 10:30:07;;;;;;;11.90;5.50;;;;;;;31.18;37.33;98345.05;137547;1273;22310;-80
2023/06/30 10:33:10;;;;;;;22.70;20.30;;;;;;;31.09;37.89;98339.79;137552;1273;22209;-82
2023/06/30 10:36:13;;;;;;;103.30;12.90;;;;;;;31.23;37.19;98339.45;137584;1273;22546;-85
2023/06/30 10:39:16;;;;;;;38.70;6.90;;;;;;;31.33;37.11;98337.52;137443;1273;22224;-81
2023/06/30 10:42:20;;;;;;;80.60;10.50;;;;;;;31.33;37.21;98335.39;137409;1273;22562;-81
2023/06/30 10:45:23;;;;;;;5.20;3.50;;;;;;;31.39;37.40;98332.41;137226;1273;22244;-82
2023/06/30 10:48:26;;;;;;;;;;;;;;;31.38;35.98;98330.66;137614;1260;22359;-81
2023/06/30 10:51:28;;;;;;;3.70;3.20;;;;;;;30.78;35.75;98334.36;137573;1273;22130;-83
2023/06/30 10:54:31;;;;;;;299.70;26.60;;;;;;;30.37;36.02;98327.84;137541;1273;22337;-82
2023/06/30 10:57:34;;;;;;;4.90;3.00;;;;;;;30.37;36.75;98320.48;137526;1273;22256;-82
2023/06/30 11:00:36;;;;;;;13.80;3.90;;;;;;;30.60;36.71;98317.67;137430;1273;22895;-80
2023/06/30 11:03:39;;;;;;;3.00;2.70;;;;;;;30.78;36.58;98318.38;137453;1273;22244;-83
2023/06/30 11:06:41;;;;;;;5.50;3.30;;;;;;;30.74;36.57;98319.45;137329;1273;22245;-81
2023/06/30 11:09:44;;;;;;;17.70;4.40;;;;;;;30.86;36.22;98316.30;137528;1273;22348;-83
2023/06/30 11:12:49;;;;;;;24.90;4.80;;;;;;;31.09;36.89;98311.45;137495;1273;22210;-81
2023/06/30 11:15:52;;;;;;;;;;;;;;;31.28;36.43;98306.35;137564;1273;22393;-82
2023/06/30 11:18:54;;;;;;;36.00;6.20;;;;;;;31.29;35.04;98304.13;137538;1273;22385;-82
2023/06/30 11:21:57;;;;;;;4.20;2.80;;;;;;;31.31;34.75;98302.13;137548;1273;22311;-83
2023/06/30 11:24:59;;;;;;;7.20;3.60;;;;;;;31.26;35.18;98297.92;137594;1273;22329;-82
2023/06/30 11:28:04;;;;;;;5.30;3.10;;;;;;;31.35;35.62;98297.68;137556;1273;22240;-83
2023/06/30 11:31:07;;;;;;;14.70;3.90;;;;;;;31.60;35.56;98299.96;137330;1273;227677;-83
2023/06/30 11:34:10;;;;;;;4.90;3.70;;;;;;;31.49;34.88;98298.33;137592;1273;22262;-84
2023/06/30 11:37:12;;;;;;;;;;;;;;;31.45;36.56;98297.94;137607;1273;22308;-81
2023/06/30 11:40:15;;;;;;;9.30;3.20;;;;;;;31.76;35.78;98294.85;137573;1273;22766;-82
2023/06/30 11:43:21;;;;;;;;;;;;;;;31.97;35.25;98291.45;137558;1267;22351;-82
2023/06/30 11:46:27;;;;;;;4.20;2.90;;;;;;;31.71;33.67;98289.63;137428;1272;22195;-83
2023/06/30 12:22:41;;;;;;;5.40;2.70;;;;;;;31.93;33.58;98265.56;133605;1299;545417;-87
2023/06/30 12:25:43;;;;;;;3.60;2.30;;;;;;;31.85;34.31;98261.89;136426;1286;22206;-81
2023/06/30 12:28:44;;;;;;;7.20;2.50;;;;;;;31.82;33.68;98266.29;136392;1286;22112;-81
2023/06/30 12:31:47;;;;;;;6.80;2.40;;;;;;;31.44;31.72;98268.14;136443;1286;22206;-83
2023/06/30 12:34:48;;;;;;;7.10;2.60;;;;;;;31.17;32.53;98267.67;136248;1283;284613;-84
2023/06/30 12:37:51;;;;;;;3.00;2.50;;;;;;;31.26;32.65;98265.00;136729;1281;22102;-83
2023/06/30 12:40:52;;;;;;;2.70;2.50;;;;;;;31.56;32.33;98257.08;136753;1281;22197;-84
2023/06/30 12:43:55;;;;;;;8.70;3.60;;;;;;;31.92;31.97;98248.53;137499;1273;22212;-85
2023/06/30 12:46:56;;;;;;;;;;;;;;;31.62;31.63;98255.88;137472;1273;22334;-84
2023/06/30 12:49:57;;;;;;;7.40;2.90;;;;;;;30.75;32.83;98253.03;137422;1273;22351;-85
2023/06/30 12:53:00;;;;;;;4.40;3.00;;;;;;;30.35;33.52;98255.88;137535;1273;22234;-87
2023/06/30 12:56:01;;;;;;;3.50;3.10;;;;;;;29.81;34.38;98255.88;137481;1273;22304;-83
2023/06/30 12:59:03;;;;;;;6.10;3.10;;;;;;;29.47;35.04;98254.83;137419;1273;22175;-84
2023/06/30 13:02:04;;;;;;;7.40;3.20;;;;;;;29.56;35.38;98251.97;137525;1273;22314;-83
2023/06/30 13:05:05;;;;;;;6.70;3.40;;;;;;;29.89;36.26;98245.36;137502;1273;22226;-83
2023/06/30 13:08:07;;;;;;;5.90;3.10;;;;;;;30.26;36.01;98243.08;137433;1273;22342;-85
2023/06/30 13:11:08;;;;;;;20.60;5.00;;;;;;;30.62;35.65;98234.55;137514;1273;22222;-84
2023/06/30 13:14:09;;;;;;;6.10;3.00;;;;;;;31.13;35.33;98232.80;136982;1273;22260;-82
2023/06/30 13:17:10;;;;;;;7.70;3.40;;;;;;;31.63;34.29;98227.59;137516;1273;22264;-85
2023/06/30 13:20:11;;;;;;;8.40;3.40;;;;;;;31.85;34.21;98227.20;137229;1273;22234;-84
2023/06/30 13:23:12;;;;;;;4.60;3.40;;;;;;;31.70;34.51;98223.01;137508;1273;22216;-85
2023/06/30 13:26:14;;;;;;;8.40;3.70;;;;;;;31.54;34.59;98218.96;137480;1273;22086;-83
2023/06/30 13:29:16;;;;;;;9.70;4.20;;;;;;;32.09;34.21;98211.46;137546;1273;22452;-84
2023/06/30 13:32:18;;;;;;;;;;;;;;;32.32;33.59;98198.67;137480;1273;23082;-85
2023/06/30 13:35:19;;;;;;;9.40;3.20;;;;;;;32.35;33.42;98201.31;137480;1274;22562;-79
2023/06/30 13:38:20;;;;;;;7.80;3.40;;;;;;;32.45;33.11;98197.16;137498;1273;22284;-87
2023/06/30 13:41:21;;;;;;;4.90;3.60;;;;;;;32.24;33.86;98194.64;137066;1267;22240;-86
2023/06/30 13:44:25;;;;;;;10.50;4.00;;;;;;;32.23;34.17;98194.23;136935;1273;22673;-86
2023/06/30 13:47:26;;;;;;;10.40;3.20;;;;;;;32.25;33.68;98188.14;137455;1274;22387;-87
2023/06/30 13:50:28;;;;;;;4.90;3.10;;;;;;;32.04;34.17;98184.48;137228;1273;22687;-85
2023/06/30 13:53:29;;;;;;;8.90;3.00;;;;;;;32.10;34.54;98184.41;137182;1274;22532;-86
2023/06/30 13:56:30;;;;;;;4.70;2.70;;;;;;;32.03;33.12;98180.23;137456;1273;22267;-85
2023/06/30 13:59:33;;;;;;;5.80;3.10;;;;;;;31.80;32.77;98175.60;137138;1274;22420;-83
2023/06/30 14:02:35;;;;;;;6.90;2.80;;;;;;;31.66;32.94;98173.16;137037;1274;22368;-84
2023/06/30 14:05:42;;;;;;;8.60;3.20;;;;;;;31.60;31.63;98173.70;137386;1273;22594;-87
2023/06/30 14:08:43;;;;;;;14.90;3.30;;;;;;;31.45;32.22;98175.89;136944;1273;22226;-85
2023/06/30 14:11:44;;;;;;;3.20;2.50;;;;;;;31.44;32.51;98168.95;137105;1274;22853;-83
2023/06/30 14:14:46;;;;;;;6.20;3.00;;;;;;;31.51;32.17;98165.95;137430;1274;22619;-81
2023/06/30 14:17:47;;;;;;;3.70;2.90;;;;;;;31.51;32.67;98163.45;137356;1274;22253;-83
2023/06/30 14:20:48;;;;;;;5.70;2.80;;;;;;;31.58;32.52;98163.20;136946;1273;23081;-84
2023/06/30 14:23:49;;;;;;;5.90;2.60;;;;;;;31.68;32.52;98161.33;137000;1274;24968;-81
2023/06/30 14:26:50;;;;;;;6.30;2.80;;;;;;;31.59;32.32;98156.84;137444;1274;22209;-81
2023/06/30 14:29:51;;;;;;;3.20;2.90;;;;;;;31.77;32.13;98154.51;137446;1274;22683;-81
2023/06/30 14:32:52;;;;;;;6.10;2.60;;;;;;;31.88;32.05;98150.44;137020;1274;22551;-83
2023/06/30 14:35:54;;;;;;;3.10;2.70;;;;;;;31.78;31.30;98151.86;137517;1254;22839;-83
2023/06/30 14:38:55;;;;;;;5.20;3.00;;;;;;;31.49;32.16;98147.33;137060;1269;22218;-83
2023/06/30 14:41:56;;;;;;;3.80;2.80;;;;;;;31.14;31.74;98143.86;137081;1274;22241;-83
2023/06/30 14:44:57;;;;;;;5.30;2.80;;;;;;;30.98;32.72;98137.61;137209;1274;22481;-81